createdAt,value
2022-08-18T04:53:13.499Z,100.00
2022-08-18T04:58:29.069Z,100.00
2022-08-18T05:01:01.392Z,100.00
2022-08-18T05:03:28.240Z,100.00
2022-08-18T05:05:56.067Z,100.00
2022-08-18T05:08:26.324Z,100.00
2022-08-18T05:11:03.874Z,100.00
2022-08-18T05:13:31.198Z,100.00
2022-08-18T05:16:18.090Z,100.00
2022-08-18T05:18:49.135Z,100.00
2022-08-18T05:21:24.665Z,100.00
2022-08-18T05:23:52.195Z,100.00
2022-08-18T05:26:37.719Z,100.00
2022-08-18T05:29:18.341Z,100.00
2022-08-18T05:31:46.621Z,100.00
2022-08-18T05:34:13.309Z,100.00
2022-08-18T05:36:48.758Z,100.00
2022-08-18T05:39:18.326Z,100.00
2022-08-18T05:41:55.443Z,100.00
2022-08-18T05:44:28.487Z,100.00
2022-08-18T05:47:00.161Z,100.00
2022-08-18T05:49:27.615Z,100.00
2022-08-18T05:52:05.456Z,100.00
2022-08-18T05:55:06.296Z,100.00
2022-08-18T05:57:43.070Z,100.00
2022-08-18T06:00:11.784Z,100.00
2022-08-18T06:03:13.621Z,100.00
2022-08-18T06:05:54.926Z,100.00
2022-08-18T06:08:27.952Z,100.00
2022-08-18T06:10:55.230Z,100.00
2022-08-18T06:13:24.353Z,100.00
2022-08-18T06:16:19.098Z,100.00
2022-08-18T06:18:59.500Z,100.00
2022-08-18T06:21:39.370Z,100.00
2022-08-18T06:24:35.035Z,100.00
2022-08-18T06:27:31.165Z,100.00
2022-08-18T06:30:28.236Z,100.00
2022-08-18T06:33:10.003Z,100.00
2022-08-18T06:35:48.452Z,100.00
2022-08-18T06:38:36.868Z,100.00
2022-08-18T06:41:42.444Z,100.00
2022-08-18T06:44:13.185Z,100.00
2022-08-18T06:46:44.307Z,100.00
2022-08-18T06:49:25.749Z,100.00
2022-08-18T06:51:52.434Z,99.41
2022-08-18T06:54:18.986Z,97.94
2022-08-18T06:56:49.069Z,98.41
2022-08-18T06:59:29.205Z,100.00
2022-08-18T07:02:18.140Z,100.00
2022-08-18T07:04:59.691Z,99.03
2022-08-18T07:07:41.066Z,95.59
2022-08-18T07:10:13.422Z,90.89
2022-08-18T07:12:40.192Z,90.59
2022-08-18T07:15:08.061Z,84.43
2022-08-18T07:17:43.155Z,86.97
2022-08-18T07:20:25.311Z,85.21
2022-08-18T07:23:00.221Z,84.12
2022-08-18T07:25:32.799Z,85.19
2022-08-18T07:28:01.968Z,87.25
2022-08-18T07:30:36.715Z,89.66
2022-08-18T07:33:21.326Z,89.26
2022-08-18T07:35:58.229Z,87.49
2022-08-18T07:38:42.586Z,90.52
2022-08-18T07:41:20.777Z,93.16
2022-08-18T07:43:51.843Z,95.58
2022-08-18T07:46:39.408Z,97.55
2022-08-18T07:49:07.155Z,98.76
2022-08-18T07:52:02.213Z,98.31
2022-08-18T07:54:58.687Z,100.00
2022-08-18T07:57:35.383Z,100.00
2022-08-18T08:00:58.022Z,100.00
2022-08-18T08:04:01.085Z,100.00
2022-08-18T08:07:23.390Z,100.00
2022-08-18T08:10:22.366Z,100.00
2022-08-18T08:13:09.390Z,100.00
2022-08-18T08:15:58.064Z,100.00
2022-08-18T08:18:39.584Z,100.00
2022-08-18T08:21:14.544Z,100.00
2022-08-18T08:24:21.022Z,100.00
2022-08-18T08:27:12.937Z,100.00
2022-08-18T08:29:42.588Z,100.00
2022-08-18T08:32:14.727Z,100.00
2022-08-18T08:34:48.307Z,100.00
2022-08-18T08:37:23.013Z,98.71
2022-08-18T08:39:57.918Z,94.33
2022-08-18T08:42:52.627Z,84.39
2022-08-18T08:45:45.041Z,85.02
2022-08-18T08:48:17.850Z,81.26
2022-08-18T08:51:08.479Z,77.43
2022-08-18T08:53:48.213Z,77.01
2022-08-18T08:56:17.363Z,75.58
2022-08-18T08:58:52.570Z,74.86
2022-08-18T09:01:37.150Z,78.33
2022-08-18T09:04:53.376Z,78.27
2022-08-18T09:07:40.266Z,78.38
2022-08-18T09:10:48.461Z,72.76
2022-08-18T09:13:34.989Z,67.78
2022-08-18T09:16:38.572Z,69.24
2022-08-18T09:19:29.984Z,70.67
2022-08-18T09:22:18.579Z,71.28
2022-08-18T09:24:49.399Z,71.31
2022-08-18T09:28:00.106Z,68.94
2022-08-18T09:30:55.189Z,69.94
2022-08-18T09:33:51.177Z,70.62
2022-08-18T09:36:36.423Z,71.92
2022-08-18T09:39:56.517Z,73.66
2022-08-18T09:42:50.121Z,75.24
2022-08-18T09:45:33.278Z,78.73
2022-08-18T09:48:03.805Z,77.74
2022-08-18T09:50:38.584Z,78.33
2022-08-18T09:53:32.697Z,80.31
2022-08-18T09:56:04.892Z,79.91
2022-08-18T09:58:51.085Z,82.52
2022-08-18T10:01:30.382Z,84.66
2022-08-18T10:04:15.036Z,85.39
2022-08-18T10:06:48.377Z,87.07
2022-08-18T10:09:36.115Z,84.06
2022-08-18T10:12:33.338Z,81.73
2022-08-18T10:18:17.520Z,75.36
2022-08-18T10:21:27.784Z,71.55
2022-08-18T10:26:55.816Z,60.63
2022-08-18T10:29:32.098Z,61.56
2022-08-18T10:32:01.417Z,59.31
2022-08-18T10:34:40.255Z,56.28
2022-08-18T10:37:25.908Z,56.55
2022-08-18T10:39:56.926Z,58.87
2022-08-18T10:42:31.717Z,60.58
2022-08-18T10:45:27.641Z,61.89
2022-08-18T10:48:16.793Z,61.30
2022-08-18T10:51:21.641Z,62.13
2022-08-18T10:54:20.159Z,63.16
2022-08-18T10:56:52.945Z,65.50
2022-08-18T10:59:29.337Z,66.09
2022-08-18T11:02:04.185Z,66.34
2022-08-18T11:04:46.957Z,68.00
2022-08-18T11:07:30.817Z,70.42
2022-08-18T11:13:36.634Z,67.18
2022-08-18T11:16:21.623Z,64.70
2022-08-18T11:18:57.951Z,59.80
2022-08-18T11:21:41.642Z,57.18
2022-08-18T11:24:09.862Z,56.68
2022-08-18T11:26:44.028Z,58.12
2022-08-18T11:29:38.193Z,56.52
2022-08-18T11:32:11.835Z,55.89
2022-08-18T11:34:45.742Z,56.75
2022-08-18T11:37:51.397Z,56.23
2022-08-18T11:43:18.909Z,60.73
2022-08-18T11:46:02.069Z,62.65
2022-08-18T11:48:39.079Z,60.74
2022-08-18T11:51:17.198Z,62.02
2022-08-18T11:53:53.990Z,61.91
2022-08-18T11:56:34.481Z,61.91
2022-08-18T11:59:04.526Z,61.56
2022-08-18T12:01:39.043Z,60.07
2022-08-18T12:04:14.452Z,59.02
2022-08-18T12:06:40.980Z,58.33
2022-08-18T12:09:54.199Z,57.41
2022-08-18T12:12:23.686Z,58.99
2022-08-18T12:15:13.986Z,58.72
2022-08-18T12:17:52.466Z,58.57
2022-08-18T12:20:32.857Z,58.19
2022-08-18T12:22:59.545Z,58.44
2022-08-18T12:25:29.198Z,57.96
2022-08-18T12:27:55.846Z,55.55
2022-08-18T12:30:22.382Z,54.55
2022-08-18T12:32:56.195Z,53.56
2022-08-18T12:35:27.528Z,54.54
2022-08-18T12:37:59.457Z,54.01
2022-08-18T12:40:30.305Z,55.32
2022-08-18T12:43:00.020Z,54.78
2022-08-18T12:45:27.987Z,54.24
2022-08-18T12:47:55.664Z,54.17
2022-08-18T12:53:09.935Z,53.00
2022-08-18T12:58:29.223Z,54.38
2022-08-18T13:00:56.631Z,54.55
2022-08-18T13:03:23.781Z,56.06
2022-08-18T13:05:54.330Z,55.69
2022-08-18T13:08:30.412Z,55.00
2022-08-18T13:11:00.476Z,53.28
2022-08-18T13:13:42.767Z,53.91
2022-08-18T13:16:10.265Z,55.13
2022-08-18T13:18:43.209Z,55.01
2022-08-18T13:21:12.652Z,52.38
2022-08-18T13:23:40.189Z,52.11
2022-08-18T13:26:10.071Z,52.90
2022-08-18T13:28:56.724Z,55.56
2022-08-18T13:31:29.637Z,56.84
2022-08-18T13:34:03.701Z,58.19
2022-08-18T13:36:46.097Z,59.27
2022-08-18T13:39:21.346Z,59.07
2022-08-18T13:41:52.221Z,58.24
2022-08-18T13:44:26.008Z,58.98
2022-08-18T13:46:56.882Z,59.17
2022-08-18T13:49:29.991Z,58.67
2022-08-18T13:52:03.377Z,58.19
2022-08-18T13:54:36.067Z,58.21
2022-08-18T13:57:04.142Z,56.91
2022-08-18T13:59:33.149Z,56.03
2022-08-18T14:02:03.688Z,54.70
2022-08-18T14:04:31.425Z,54.91
2022-08-18T14:07:07.250Z,55.04
2022-08-18T14:09:38.280Z,55.46
2022-08-18T14:12:15.745Z,56.70
2022-08-18T14:14:49.369Z,56.50
2022-08-18T14:17:19.534Z,54.26
2022-08-18T14:20:04.844Z,55.43
2022-08-18T14:22:55.705Z,56.74
2022-08-18T14:25:41.310Z,57.66
2022-08-18T14:28:11.852Z,60.21
2022-08-18T14:30:39.167Z,64.53
2022-08-18T14:33:11.532Z,69.56
2022-08-18T14:36:05.894Z,72.66
2022-08-18T14:38:25.043Z,72.78
2022-08-18T14:40:51.914Z,76.23
2022-08-18T14:43:24.853Z,79.62
2022-08-18T14:45:53.871Z,85.32
2022-08-18T14:48:26.982Z,87.49
2022-08-18T14:50:56.076Z,90.70
2022-08-18T14:53:27.293Z,93.68
2022-08-18T14:55:54.902Z,96.77
2022-08-18T14:58:31.690Z,99.17
2022-08-18T15:01:08.356Z,100.00
2022-08-18T15:03:36.669Z,100.00
2022-08-18T15:06:06.394Z,100.00
2022-08-18T15:08:36.084Z,100.00
2022-08-18T15:11:11.834Z,100.00
2022-08-18T15:13:40.508Z,100.00
2022-08-18T15:16:13.905Z,100.00
2022-08-18T15:18:42.481Z,100.00
2022-08-18T15:21:35.249Z,100.00
2022-08-18T15:24:25.058Z,100.00
2022-08-18T15:26:57.486Z,100.00
2022-08-18T15:29:35.099Z,100.00
2022-08-18T15:32:05.696Z,100.00
2022-08-18T15:34:47.381Z,100.00
2022-08-18T15:37:19.758Z,100.00
2022-08-18T15:39:47.750Z,100.00
2022-08-18T15:42:26.396Z,100.00
2022-08-18T15:45:11.973Z,100.00
2022-08-18T15:47:41.440Z,100.00
2022-08-18T15:50:25.955Z,100.00
2022-08-18T15:52:58.113Z,100.00
2022-08-18T15:55:35.952Z,100.00
2022-08-18T15:58:10.854Z,100.00
2022-08-18T16:00:42.316Z,100.00
2022-08-18T16:03:14.620Z,100.00
2022-08-18T16:05:48.127Z,100.00
2022-08-18T16:08:18.169Z,100.00
2022-08-18T16:10:45.947Z,100.00
2022-08-18T16:13:14.635Z,100.00
2022-08-18T16:15:46.721Z,100.00
2022-08-18T16:18:15.680Z,100.00
2022-08-18T16:20:47.211Z,100.00
2022-08-18T16:23:14.683Z,100.00
2022-08-18T16:25:43.131Z,100.00
2022-08-18T16:28:13.225Z,100.00
2022-08-18T16:30:41.037Z,100.00
2022-08-18T16:33:07.944Z,100.00
2022-08-18T16:35:35.518Z,100.00
2022-08-18T16:38:09.189Z,100.00
2022-08-18T16:40:36.831Z,100.00
2022-08-18T16:43:04.039Z,100.00
2022-08-18T16:45:40.537Z,100.00
2022-08-18T16:48:08.171Z,100.00
2022-08-18T16:50:37.731Z,100.00
2022-08-18T16:53:05.589Z,100.00
2022-08-18T16:55:34.435Z,100.00
2022-08-18T16:58:19.637Z,100.00
2022-08-18T17:01:04.560Z,100.00
2022-08-18T17:03:49.524Z,100.00
2022-08-18T17:06:19.794Z,100.00
2022-08-18T17:08:46.643Z,100.00
2022-08-18T17:11:20.772Z,100.00
2022-08-18T17:13:49.389Z,100.00
2022-08-18T17:16:17.535Z,100.00
2022-08-18T17:18:45.224Z,100.00
2022-08-18T17:21:15.828Z,100.00
2022-08-18T17:23:42.885Z,100.00
2022-08-18T17:26:17.784Z,100.00
2022-08-18T17:28:52.764Z,100.00
2022-08-18T17:31:24.791Z,100.00
2022-08-18T17:33:55.322Z,100.00
2022-08-18T17:36:34.610Z,100.00
2022-08-18T17:39:05.493Z,100.00
2022-08-18T17:41:57.449Z,100.00
2022-08-18T17:44:31.103Z,100.00
2022-08-18T17:47:02.546Z,100.00
2022-08-18T17:50:04.214Z,100.00
2022-08-18T17:52:53.456Z,100.00
2022-08-18T17:56:06.806Z,100.00
2022-08-18T17:58:48.275Z,100.00
2022-08-18T18:01:15.593Z,100.00
2022-08-18T18:03:44.046Z,100.00
2022-08-18T18:06:18.359Z,100.00
2022-08-18T18:08:57.675Z,100.00
2022-08-18T18:11:32.319Z,100.00
2022-08-18T18:14:00.805Z,100.00
2022-08-18T18:16:37.142Z,100.00
2022-08-18T18:19:13.340Z,100.00
2022-08-18T18:22:00.392Z,100.00
2022-08-18T18:24:34.651Z,100.00
2022-08-18T18:27:02.043Z,100.00
2022-08-18T18:29:37.797Z,100.00
2022-08-18T18:32:26.253Z,100.00
2022-08-18T18:35:11.384Z,100.00
2022-08-18T18:37:47.290Z,100.00
2022-08-18T18:40:30.986Z,100.00
2022-08-18T18:43:18.098Z,100.00
2022-08-18T18:45:59.999Z,100.00
2022-08-18T18:48:48.227Z,100.00
2022-08-18T18:51:33.861Z,100.00
2022-08-18T18:54:40.911Z,100.00
2022-08-18T18:57:14.683Z,100.00
2022-08-18T19:00:19.811Z,100.00
2022-08-18T19:03:09.945Z,100.00
2022-08-18T19:06:15.897Z,100.00
2022-08-18T19:08:47.225Z,100.00
2022-08-18T19:11:22.267Z,100.00
2022-08-18T19:13:58.356Z,100.00
2022-08-18T19:16:30.807Z,100.00
2022-08-18T19:19:36.027Z,100.00
2022-08-18T19:22:06.817Z,100.00
2022-08-18T19:24:46.216Z,100.00
2022-08-18T19:27:24.636Z,100.00
2022-08-18T19:29:55.305Z,100.00
2022-08-18T19:32:31.610Z,100.00
2022-08-18T19:34:58.697Z,100.00
2022-08-18T19:37:52.177Z,100.00
2022-08-18T19:40:27.250Z,100.00
2022-08-18T19:43:12.721Z,100.00
2022-08-18T19:46:05.618Z,100.00
2022-08-18T19:48:53.365Z,100.00
2022-08-18T19:51:29.174Z,100.00
2022-08-18T19:54:34.944Z,100.00
2022-08-18T20:05:04.051Z,100.00
2022-08-18T20:07:42.504Z,100.00
2022-08-18T20:10:22.522Z,100.00
2022-08-18T20:13:15.618Z,100.00
2022-08-18T20:16:00.081Z,100.00
2022-08-18T20:18:35.831Z,100.00
2022-08-18T20:21:11.625Z,100.00
2022-08-18T20:24:12.484Z,100.00
2022-08-18T20:26:39.099Z,100.00
2022-08-18T20:29:09.485Z,100.00
2022-08-18T20:31:53.077Z,100.00
2022-08-18T20:34:23.228Z,100.00
2022-08-18T20:36:51.714Z,100.00
2022-08-18T20:39:39.732Z,100.00
2022-08-18T20:42:27.526Z,100.00
2022-08-18T20:44:58.142Z,100.00
2022-08-18T20:47:49.059Z,100.00
2022-08-18T20:50:42.319Z,100.00
2022-08-18T20:53:12.646Z,100.00
2022-08-18T20:55:42.148Z,100.00
2022-08-18T20:58:20.170Z,100.00
2022-08-18T21:00:57.381Z,100.00
2022-08-18T21:03:35.730Z,100.00
2022-08-18T21:06:04.255Z,100.00
2022-08-18T21:08:33.309Z,100.00
2022-08-18T21:11:01.702Z,100.00
2022-08-18T21:13:31.432Z,100.00
2022-08-18T21:15:59.435Z,100.00
2022-08-18T21:18:29.024Z,100.00
2022-08-18T21:20:59.384Z,100.00
2022-08-18T21:23:33.769Z,100.00
2022-08-18T21:26:10.485Z,100.00
2022-08-18T21:28:40.197Z,100.00
2022-08-18T21:31:42.282Z,100.00
2022-08-18T21:34:30.389Z,100.00
2022-08-18T21:36:58.794Z,100.00
2022-08-18T21:39:25.542Z,100.00
2022-08-18T21:41:55.325Z,100.00
2022-08-18T21:44:26.260Z,100.00
2022-08-18T21:47:23.733Z,100.00
2022-08-18T21:50:08.822Z,100.00
2022-08-18T21:52:38.569Z,100.00
2022-08-18T21:55:17.413Z,100.00
2022-08-18T21:57:59.646Z,100.00
2022-08-18T22:00:30.536Z,100.00
2022-08-18T22:03:19.257Z,100.00
2022-08-18T22:06:03.837Z,100.00
2022-08-18T22:08:34.257Z,100.00
2022-08-18T22:12:01.229Z,100.00
2022-08-18T22:14:36.270Z,100.00
2022-08-18T22:17:25.294Z,100.00
2022-08-18T22:19:52.041Z,100.00
2022-08-18T22:22:39.827Z,100.00
2022-08-18T22:25:07.968Z,100.00
2022-08-18T22:27:34.655Z,100.00
2022-08-18T22:30:05.405Z,100.00
2022-08-18T22:32:35.605Z,100.00
2022-08-18T22:35:05.224Z,100.00
2022-08-18T22:37:40.392Z,100.00
2022-08-18T22:40:11.309Z,100.00
2022-08-18T22:42:38.830Z,100.00
2022-08-18T22:45:08.933Z,100.00
2022-08-18T22:47:43.661Z,100.00
2022-08-18T22:50:19.488Z,100.00
2022-08-18T22:52:49.876Z,100.00
2022-08-18T22:55:21.641Z,100.00
2022-08-18T22:57:55.613Z,100.00
2022-08-18T23:00:23.419Z,100.00
2022-08-18T23:02:52.177Z,100.00
2022-08-18T23:05:21.674Z,100.00
2022-08-18T23:07:51.197Z,100.00
2022-08-18T23:10:18.205Z,100.00
2022-08-18T23:12:46.880Z,100.00
2022-08-18T23:15:16.717Z,100.00
2022-08-18T23:17:44.108Z,100.00
2022-08-18T23:20:17.539Z,100.00
2022-08-18T23:22:45.713Z,100.00
2022-08-18T23:25:13.516Z,100.00
2022-08-18T23:27:41.322Z,100.00
2022-08-18T23:30:09.667Z,100.00
2022-08-18T23:32:36.931Z,100.00
2022-08-18T23:35:04.645Z,100.00
2022-08-18T23:37:31.921Z,100.00
2022-08-18T23:39:59.547Z,100.00
2022-08-18T23:42:27.033Z,100.00
2022-08-18T23:44:54.288Z,100.00
2022-08-18T23:47:23.452Z,100.00
2022-08-18T23:49:51.769Z,100.00
2022-08-18T23:52:18.698Z,100.00
2022-08-18T23:54:45.780Z,100.00
2022-08-18T23:57:12.774Z,100.00
2022-08-18T23:59:40.020Z,100.00
